Time;durP1;ratioP1;P1;durP2;ratioP2;P2;SDS_P1;SDS_P2;PMS_P1;PMS_P2;Temp;Humidity;BMP_temperature;BMP_pressure;BME280_temperature;BME280_humidity;BME280_pressure;Samples;Min_cycle;Max_cycle;Signal;HPM_P1;HPM_P2
2022/02/05 00:00:31;;;;;;;26.15;19.90;;;;;;;;;;5018024;28;20168;-58
2022/02/05 00:08:29;;;;;;;30.42;27.17;;;;;;;;;;5014744;28;20096;-56
2022/02/05 00:14:18;;;;;;;31.65;21.60;;;;;;;;;;5015574;28;20599;-56
2022/02/05 00:38:50;;;;;;;30.70;23.45;;;;;;;;;;5016318;28;20087;-56
2022/02/05 00:41:25;;;;;;;28.70;21.35;;;;;;;;;;5016591;28;20072;-57
2022/02/05 00:46:19;;;;;;;21.35;18.73;;;;;;;;;;5017974;28;20450;-55
2022/02/05 00:48:45;;;;;;;14.98;13.45;;;;;;;;;;5014818;28;20050;-56
2022/02/05 00:51:18;;;;;;;20.23;16.08;;;;;;;;;;5015178;28;20493;-55
2022/02/05 00:53:46;;;;;;;15.90;14.38;;;;;;;;;;5014434;28;20029;-57
2022/02/05 00:56:19;;;;;;;9.05;7.90;;;;;;;;;;5015644;28;20084;-55
2022/02/05 00:58:45;;;;;;;15.77;14.38;;;;;;;;;;5012147;28;20091;-57
2022/02/05 01:01:10;;;;;;;25.20;22.27;;;;;;;;;;5011439;28;20453;-57
2022/02/05 01:03:36;;;;;;;32.22;28.60;;;;;;;;;;5015429;28;20717;-57
2022/02/05 01:06:02;;;;;;;33.70;28.27;;;;;;;;;;5015334;28;20105;-57
2022/02/05 01:08:28;;;;;;;34.08;30.13;;;;;;;;;;5013253;28;20493;-56
2022/02/05 01:10:54;;;;;;;35.90;32.08;;;;;;;;;;5015402;28;20083;-55
2022/02/05 01:13:20;;;;;;;41.83;33.90;;;;;;;;;;5013787;28;20025;-57
2022/02/05 01:18:21;;;;;;;40.00;36.03;;;;;;;;;;5017231;28;20078;-57
2022/02/05 01:23:15;;;;;;;26.92;24.13;;;;;;;;;;5014621;28;20088;-56
2022/02/05 01:25:47;;;;;;;26.05;20.33;;;;;;;;;;5014366;28;20028;-56
2022/02/05 01:28:20;;;;;;;26.52;19.27;;;;;;;;;;5016459;28;20100;-58
2022/02/05 01:30:50;;;;;;;24.10;19.40;;;;;;;;;;5013826;28;20031;-56
2022/02/05 01:36:01;;;;;;;23.20;18.35;;;;;;;;;;5017030;28;20107;-56
2022/02/05 01:54:51;;;;;;;17.88;10.07;;;;;;;;;;5016378;28;20029;-56
2022/02/05 02:05:34;;;;;;;33.38;24.08;;;;;;;;;;5016352;28;20037;-56
2022/02/05 02:21:35;;;;;;;62.55;41.33;;;;;;;;;;5016910;28;20026;-56
2022/02/05 02:24:16;;;;;;;46.38;26.83;;;;;;;;;;5022102;28;20080;-56
2022/02/05 02:26:58;;;;;;;26.45;18.88;;;;;;;;;;5015336;28;20127;-56
2022/02/05 02:29:50;;;;;;;19.67;13.68;;;;;;;;;;5015189;28;20037;-56
2022/02/05 02:32:09;;;;;;;23.67;14.35;;;;;;;;;;5013416;28;20101;-56
2022/02/05 02:34:40;;;;;;;22.95;17.92;;;;;;;;;;5018622;28;20096;-56
2022/02/05 02:37:10;;;;;;;25.10;19.23;;;;;;;;;;5016334;28;20049;-55
2022/02/05 02:39:47;;;;;;;26.02;17.65;;;;;;;;;;5018681;28;20033;-56
2022/02/05 02:42:13;;;;;;;17.33;13.80;;;;;;;;;;5017178;28;20052;-56
2022/02/05 02:44:39;;;;;;;14.45;11.65;;;;;;;;;;5016604;28;20596;-56
2022/02/05 02:47:04;;;;;;;14.38;11.55;;;;;;;;;;5018984;28;20017;-56
2022/02/05 02:49:45;;;;;;;13.38;11.27;;;;;;;;;;5021217;28;20118;-56
2022/02/05 02:57:39;;;;;;;14.63;11.73;;;;;;;;;;5016461;28;20121;-56
2022/02/05 03:00:10;;;;;;;13.23;10.10;;;;;;;;;;5016158;28;20113;-57
2022/02/05 03:02:35;;;;;;;23.67;8.50;;;;;;;;;;5015154;28;20014;-56
2022/02/05 03:05:01;;;;;;;12.65;8.00;;;;;;;;;;5016649;28;20033;-56
2022/02/05 03:07:26;;;;;;;7.22;4.28;;;;;;;;;;5017072;28;20375;-56
2022/02/05 03:09:53;;;;;;;11.88;7.78;;;;;;;;;;5013506;28;20032;-56
2022/02/05 03:12:19;;;;;;;10.18;6.30;;;;;;;;;;5018368;28;20655;-56
2022/02/05 03:14:44;;;;;;;8.40;6.97;;;;;;;;;;5017036;28;20112;-56
2022/02/05 03:17:21;;;;;;;15.45;9.50;;;;;;;;;;5015387;28;20517;-56
2022/02/05 03:19:48;;;;;;;12.60;9.32;;;;;;;;;;5014368;28;20029;-56
2022/02/05 03:22:14;;;;;;;21.15;9.60;;;;;;;;;;5016380;28;20137;-56
2022/02/05 03:24:40;;;;;;;15.05;10.48;;;;;;;;;;5017547;28;20017;-56
2022/02/05 03:27:06;;;;;;;13.38;11.10;;;;;;;;;;5017048;28;20554;-57
2022/02/05 03:29:32;;;;;;;13.05;10.88;;;;;;;;;;5015738;28;20121;-57
2022/02/05 03:31:57;;;;;;;11.98;10.73;;;;;;;;;;5015915;28;20101;-57
2022/02/05 03:34:22;;;;;;;15.75;9.20;;;;;;;;;;5016880;28;20461;-57
2022/02/05 03:36:48;;;;;;;21.38;8.77;;;;;;;;;;5017633;28;20097;-57
2022/02/05 03:39:13;;;;;;;7.47;6.60;;;;;;;;;;5016210;28;20117;-57
2022/02/05 03:41:38;;;;;;;11.90;6.78;;;;;;;;;;5016431;28;20616;-57
2022/02/05 03:44:04;;;;;;;9.20;6.32;;;;;;;;;;5015495;28;20043;-57
2022/02/05 03:46:29;;;;;;;15.80;5.78;;;;;;;;;;5016547;28;20022;-57
2022/02/05 03:48:55;;;;;;;5.22;4.15;;;;;;;;;;5012881;28;20133;-58
2022/02/05 03:51:20;;;;;;;8.93;4.57;;;;;;;;;;5014843;28;20037;-57
2022/02/05 03:53:45;;;;;;;5.75;4.38;;;;;;;;;;5016327;28;20049;-57
2022/02/05 03:56:11;;;;;;;4.60;3.10;;;;;;;;;;5015745;28;20029;-57
2022/02/05 03:58:36;;;;;;;9.25;6.00;;;;;;;;;;5015381;28;20589;-57
2022/02/05 04:01:02;;;;;;;3.65;3.00;;;;;;;;;;5015578;28;20478;-57
2022/02/05 04:03:27;;;;;;;2.78;2.53;;;;;;;;;;5013536;28;20040;-57
2022/02/05 04:05:52;;;;;;;8.90;3.13;;;;;;;;;;5015803;28;20033;-58
2022/02/05 04:08:18;;;;;;;7.88;5.15;;;;;;;;;;5016729;28;20403;-57
2022/02/05 04:10:47;;;;;;;6.60;4.38;;;;;;;;;;5012748;28;20105;-55
2022/02/05 04:16:01;;;;;;;8.00;5.50;;;;;;;;;;5013422;28;20506;-57
2022/02/05 04:18:26;;;;;;;11.85;5.28;;;;;;;;;;5016682;28;20021;-57
2022/02/05 04:20:52;;;;;;;13.30;8.50;;;;;;;;;;5016094;28;20022;-57
2022/02/05 04:23:17;;;;;;;12.27;6.00;;;;;;;;;;5015514;28;20049;-57
2022/02/05 04:25:43;;;;;;;6.55;3.75;;;;;;;;;;5013464;28;20036;-57
2022/02/05 04:28:08;;;;;;;6.13;5.53;;;;;;;;;;5014934;28;20025;-57
2022/02/05 04:30:34;;;;;;;9.40;4.63;;;;;;;;;;5013891;28;20026;-57
2022/02/05 04:32:59;;;;;;;9.60;7.97;;;;;;;;;;5012922;28;20512;-57
2022/02/05 04:35:25;;;;;;;8.25;5.35;;;;;;;;;;5014452;28;20022;-57
2022/02/05 04:37:53;;;;;;;7.35;6.10;;;;;;;;;;5016270;28;20014;-57
2022/02/05 04:43:07;;;;;;;11.70;5.70;;;;;;;;;;5016555;28;20026;-55
2022/02/05 05:19:27;;;;;;;6.57;3.60;;;;;;;;;;5018000;28;20755;-56
2022/02/05 05:21:56;;;;;;;7.95;4.18;;;;;;;;;;5012723;28;20018;-57
2022/02/05 05:24:22;;;;;;;8.13;4.35;;;;;;;;;;5014746;28;20032;-57
2022/02/05 05:26:47;;;;;;;6.97;4.88;;;;;;;;;;5015911;28;20501;-57
2022/02/05 05:29:13;;;;;;;9.20;4.90;;;;;;;;;;5013924;28;20729;-57
2022/02/05 05:31:38;;;;;;;14.77;4.30;;;;;;;;;;5017195;28;20017;-56
2022/02/05 05:34:03;;;;;;;4.95;3.40;;;;;;;;;;5014391;28;20025;-57
2022/02/05 05:36:29;;;;;;;8.13;4.15;;;;;;;;;;5014895;28;20478;-56
2022/02/05 05:39:00;;;;;;;3.47;3.15;;;;;;;;;;5011621;28;20094;-57
2022/02/05 05:41:26;;;;;;;4.75;3.78;;;;;;;;;;5015356;28;20026;-57
2022/02/05 05:45:03;;;;;;;6.93;3.90;;;;;;;;;;5013117;28;20062;-57
2022/02/05 05:46:49;;;;;;;6.63;3.78;;;;;;;;;;5016956;28;20147;-57
2022/02/05 05:49:18;;;;;;;9.07;4.28;;;;;;;;;;5014126;28;20701;-57
2022/02/05 05:51:47;;;;;;;5.35;4.10;;;;;;;;;;5015374;28;20033;-57
2022/02/05 05:54:13;;;;;;;8.52;4.53;;;;;;;;;;5011832;28;20026;-57
2022/02/05 05:56:39;;;;;;;5.88;4.00;;;;;;;;;;5018035;28;20363;-54
2022/02/05 05:59:05;;;;;;;7.72;4.13;;;;;;;;;;5018081;28;20029;-55
2022/02/05 06:01:30;;;;;;;5.82;3.70;;;;;;;;;;5014708;28;20010;-56
2022/02/05 06:03:56;;;;;;;8.57;4.68;;;;;;;;;;5017003;28;20025;-57
2022/02/05 06:06:21;;;;;;;14.25;6.35;;;;;;;;;;5021405;28;20102;-56
2022/02/05 06:08:47;;;;;;;9.50;7.95;;;;;;;;;;5015910;28;20430;-55
2022/02/05 06:11:12;;;;;;;19.73;6.47;;;;;;;;;;5017241;28;20025;-57
2022/02/05 06:13:37;;;;;;;9.25;7.47;;;;;;;;;;5017429;28;20062;-54
2022/02/05 06:16:07;;;;;;;12.68;6.78;;;;;;;;;;5017356;28;20036;-54
2022/02/05 06:18:32;;;;;;;11.27;8.27;;;;;;;;;;5015671;28;20029;-56
2022/02/05 06:20:57;;;;;;;10.35;6.47;;;;;;;;;;5020190;28;20513;-56
2022/02/05 06:23:23;;;;;;;5.05;4.55;;;;;;;;;;5019339;28;20052;-55
2022/02/05 06:25:48;;;;;;;7.78;4.95;;;;;;;;;;5019698;28;20029;-56
2022/02/05 06:28:15;;;;;;;6.43;4.43;;;;;;;;;;5017952;28;20474;-55
2022/02/05 06:30:41;;;;;;;9.63;6.68;;;;;;;;;;5018330;28;20609;-56
2022/02/05 06:33:06;;;;;;;12.25;8.18;;;;;;;;;;5018008;28;20109;-56
2022/02/05 06:35:31;;;;;;;12.48;7.75;;;;;;;;;;5020871;28;20579;-56
2022/02/05 06:37:57;;;;;;;7.53;6.47;;;;;;;;;;5016999;28;20470;-56
2022/02/05 06:40:22;;;;;;;8.40;6.30;;;;;;;;;;5021706;28;20021;-56
2022/02/05 06:42:48;;;;;;;6.55;5.32;;;;;;;;;;5017179;28;20089;-55
2022/02/05 06:45:16;;;;;;;8.32;6.05;;;;;;;;;;5017553;28;20156;-56
2022/02/05 06:47:42;;;;;;;10.93;5.75;;;;;;;;;;5016281;28;20379;-56
2022/02/05 06:50:07;;;;;;;7.13;4.57;;;;;;;;;;5015636;28;20037;-56
2022/02/05 06:52:33;;;;;;;8.93;5.70;;;;;;;;;;5020079;28;20018;-56
2022/02/05 06:54:58;;;;;;;11.48;4.35;;;;;;;;;;5020352;28;20025;-56
2022/02/05 06:57:24;;;;;;;7.13;4.03;;;;;;;;;;5016725;28;20022;-55
2022/02/05 06:59:49;;;;;;;4.10;3.70;;;;;;;;;;5016274;28;20025;-56
2022/02/05 07:02:14;;;;;;;11.52;5.53;;;;;;;;;;5015077;28;20029;-56
2022/02/05 07:04:41;;;;;;;7.60;5.28;;;;;;;;;;5016943;28;20018;-56
2022/02/05 07:07:06;;;;;;;11.10;3.63;;;;;;;;;;5010520;28;20052;-56
2022/02/05 07:09:31;;;;;;;3.97;2.30;;;;;;;;;;5017242;28;20479;-56
2022/02/05 07:11:59;;;;;;;11.88;5.97;;;;;;;;;;5014284;28;20076;-57
2022/02/05 07:14:28;;;;;;;10.77;5.05;;;;;;;;;;5014768;28;20029;-55
2022/02/05 07:19:58;;;;;;;8.23;5.70;;;;;;;;;;5011627;28;20591;-57
2022/02/05 07:22:27;;;;;;;7.38;6.35;;;;;;;;;;5013752;28;20022;-57
2022/02/05 07:30:04;;;;;;;19.15;9.48;;;;;;;;;;5015319;28;20033;-56
2022/02/05 07:32:29;;;;;;;10.57;9.45;;;;;;;;;;5015656;28;20030;-56
2022/02/05 07:34:55;;;;;;;11.32;9.32;;;;;;;;;;5014025;28;20030;-56
2022/02/05 07:37:20;;;;;;;13.02;9.45;;;;;;;;;;5014690;28;20754;-56
2022/02/05 07:39:48;;;;;;;10.73;9.60;;;;;;;;;;5014454;28;20607;-55
2022/02/05 07:42:18;;;;;;;19.00;16.48;;;;;;;;;;5013120;28;20033;-55
2022/02/05 07:44:43;;;;;;;14.48;11.05;;;;;;;;;;5016503;28;20014;-55
2022/02/05 07:47:09;;;;;;;25.98;15.68;;;;;;;;;;5014614;28;20506;-54
2022/02/05 07:49:43;;;;;;;20.90;15.25;;;;;;;;;;5016067;28;20105;-55
2022/02/05 07:52:09;;;;;;;22.63;13.90;;;;;;;;;;5015022;28;20033;-56
2022/02/05 07:54:35;;;;;;;13.52;11.48;;;;;;;;;;5015379;28;20083;-56
2022/02/05 07:57:00;;;;;;;18.70;13.88;;;;;;;;;;5016476;28;20021;-55
2022/02/05 07:59:25;;;;;;;13.63;12.38;;;;;;;;;;5014438;28;20330;-54
2022/02/05 08:01:51;;;;;;;22.00;13.18;;;;;;;;;;5011604;28;20025;-55
2022/02/05 08:04:16;;;;;;;15.80;13.63;;;;;;;;;;5013242;28;20056;-56
2022/02/05 08:06:44;;;;;;;17.42;13.85;;;;;;;;;;5008825;28;20502;-50
2022/02/05 08:09:19;;;;;;;14.07;10.57;;;;;;;;;;5013788;28;20410;-49
2022/02/05 08:11:54;;;;;;;13.27;11.60;;;;;;;;;;5012985;28;20022;-44
2022/02/05 08:14:21;;;;;;;18.42;11.95;;;;;;;;;;5014931;28;20025;-48
2022/02/05 08:16:54;;;;;;;13.10;11.80;;;;;;;;;;5014486;28;20036;-43
2022/02/05 08:19:20;;;;;;;24.63;13.57;;;;;;;;;;5009301;28;20072;-41
2022/02/05 08:21:45;;;;;;;36.60;13.27;;;;;;;;;;5012608;28;20029;-44
2022/02/05 08:24:11;;;;;;;18.45;12.82;;;;;;;;;;5013444;28;20025;-47
2022/02/05 08:26:37;;;;;;;14.15;12.15;;;;;;;;;;5012389;28;20558;-48
2022/02/05 08:29:03;;;;;;;18.75;13.15;;;;;;;;;;5013106;28;20156;-43
2022/02/05 08:31:28;;;;;;;25.15;19.65;;;;;;;;;;5011390;28;20542;-43
2022/02/05 08:33:54;;;;;;;20.08;18.10;;;;;;;;;;5014621;28;20124;-45
2022/02/05 08:36:21;;;;;;;13.85;12.40;;;;;;;;;;5013977;28;20029;-46
2022/02/05 08:38:47;;;;;;;17.15;12.88;;;;;;;;;;5012463;28;20052;-45
2022/02/05 08:41:12;;;;;;;21.77;14.73;;;;;;;;;;5015776;28;20714;-45
2022/02/05 08:43:37;;;;;;;31.58;17.23;;;;;;;;;;5014204;28;20493;-46
2022/02/05 08:46:03;;;;;;;15.13;13.73;;;;;;;;;;5013993;28;20120;-45
2022/02/05 08:48:28;;;;;;;19.98;18.00;;;;;;;;;;5010266;28;20057;-45
2022/02/05 08:50:53;;;;;;;21.05;18.33;;;;;;;;;;5012771;28;20029;-47
2022/02/05 08:53:21;;;;;;;18.73;16.88;;;;;;;;;;5013367;28;20080;-47
2022/02/05 08:55:47;;;;;;;48.13;39.92;;;;;;;;;;5015070;28;20485;-44
2022/02/05 08:58:13;;;;;;;56.08;34.10;;;;;;;;;;5019043;28;20049;-47
2022/02/05 09:00:46;;;;;;;84.78;53.25;;;;;;;;;;5013848;28;20022;-45
2022/02/05 09:03:22;;;;;;;30.10;26.77;;;;;;;;;;5013296;28;20088;-47
2022/02/05 09:05:49;;;;;;;33.28;18.38;;;;;;;;;;5015357;28;20030;-49
2022/02/05 09:08:25;;;;;;;19.15;17.30;;;;;;;;;;5007634;28;20029;-46
2022/02/05 09:11:06;;;;;;;28.50;20.20;;;;;;;;;;5010753;28;20109;-44
2022/02/05 09:16:00;;;;;;;31.77;17.80;;;;;;;;;;5009823;28;20032;-48
2022/02/05 09:18:27;;;;;;;18.60;16.77;;;;;;;;;;5013070;28;20025;-51
2022/02/05 09:20:53;;;;;;;19.02;15.98;;;;;;;;;;5013778;28;20486;-48
2022/02/05 09:23:18;;;;;;;22.02;16.63;;;;;;;;;;5015755;28;20028;-46
2022/02/05 09:25:43;;;;;;;26.88;19.05;;;;;;;;;;5012904;28;20662;-46
2022/02/05 09:28:09;;;;;;;36.60;28.35;;;;;;;;;;5010265;28;20103;-47
2022/02/05 09:33:15;;;;;;;32.40;29.20;;;;;;;;;;5011277;28;20033;-49
2022/02/05 09:35:40;;;;;;;36.53;29.10;;;;;;;;;;5014560;28;20018;-44
2022/02/05 09:38:06;;;;;;;37.17;32.40;;;;;;;;;;5010936;28;20022;-45
2022/02/05 09:40:32;;;;;;;41.25;34.10;;;;;;;;;;5018113;28;20030;-45
2022/02/05 09:42:58;;;;;;;37.38;32.70;;;;;;;;;;5017456;28;20108;-46
2022/02/05 09:45:23;;;;;;;35.75;32.03;;;;;;;;;;5015192;28;20157;-46
2022/02/05 09:47:49;;;;;;;35.30;31.77;;;;;;;;;;5014701;28;20082;-45
2022/02/05 09:50:15;;;;;;;39.17;35.03;;;;;;;;;;5015585;28;20063;-52
2022/02/05 09:52:40;;;;;;;39.00;33.90;;;;;;;;;;5014348;28;20287;-47
2022/02/05 09:55:06;;;;;;;55.95;37.17;;;;;;;;;;5016331;28;20410;-47
2022/02/05 09:57:31;;;;;;;47.33;31.88;;;;;;;;;;5016146;28;20441;-45
2022/02/05 09:59:59;;;;;;;36.58;31.58;;;;;;;;;;5013559;28;20616;-48
2022/02/05 10:02:28;;;;;;;33.55;30.15;;;;;;;;;;5013983;28;20022;-48
2022/02/05 10:04:55;;;;;;;35.33;30.38;;;;;;;;;;5014327;28;20048;-44
2022/02/05 10:07:20;;;;;;;50.35;34.10;;;;;;;;;;5011155;28;20085;-43
2022/02/05 10:09:55;;;;;;;43.47;32.40;;;;;;;;;;5013612;28;20050;-50
2022/02/05 10:12:20;;;;;;;51.97;38.55;;;;;;;;;;5013443;28;20048;-43
2022/02/05 10:14:49;;;;;;;53.90;47.25;;;;;;;;;;5013208;28;20576;-44
2022/02/05 10:17:14;;;;;;;64.18;50.55;;;;;;;;;;5010797;28;20025;-49
2022/02/05 10:19:50;;;;;;;53.13;47.20;;;;;;;;;;5009610;28;20049;-42
2022/02/05 10:22:16;;;;;;;42.40;38.08;;;;;;;;;;5014035;28;20104;-46
2022/02/05 10:24:51;;;;;;;52.78;44.00;;;;;;;;;;5011711;28;20101;-45
2022/02/05 10:27:40;;;;;;;50.33;43.88;;;;;;;;;;5012261;28;20085;-44
2022/02/05 10:30:11;;;;;;;62.88;43.50;;;;;;;;;;5011657;28;20034;-43
2022/02/05 10:32:41;;;;;;;54.00;34.60;;;;;;;;;;5014850;28;20538;-46
2022/02/05 10:38:16;;;;;;;33.78;30.25;;;;;;;;;;5015197;28;20289;-45
2022/02/05 10:43:07;;;;;;;50.55;37.25;;;;;;;;;;5016694;28;20378;-48
2022/02/05 10:45:45;;;;;;;43.53;37.97;;;;;;;;;;5016831;28;20034;-48
2022/02/05 10:48:15;;;;;;;35.10;30.70;;;;;;;;;;5019512;28;20053;-47
2022/02/05 10:50:41;;;;;;;25.15;22.52;;;;;;;;;;5018366;28;20026;-43
2022/02/05 10:53:14;;;;;;;31.30;21.95;;;;;;;;;;5019831;28;20029;-43
2022/02/05 11:06:00;;;;;;;18.83;15.07;;;;;;;;;;5016162;28;20025;-45
2022/02/05 11:08:26;;;;;;;13.35;11.95;;;;;;;;;;5017099;28;20125;-47
2022/02/05 11:18:31;;;;;;;17.38;15.57;;;;;;;;;;5019952;28;20029;-49
2022/02/05 11:21:00;;;;;;;14.38;11.82;;;;;;;;;;5017066;28;20226;-45
2022/02/05 11:23:28;;;;;;;16.52;11.27;;;;;;;;;;5021003;28;20017;-43
2022/02/05 11:25:55;;;;;;;13.32;9.55;;;;;;;;;;5016095;28;20501;-44
2022/02/05 11:28:39;;;;;;;11.68;9.55;;;;;;;;;;5017825;28;20026;-46
2022/02/05 11:31:15;;;;;;;11.65;8.23;;;;;;;;;;5015721;28;20373;-43
2022/02/05 11:33:41;;;;;;;14.95;7.25;;;;;;;;;;5014477;28;20041;-45
2022/02/05 11:36:54;;;;;;;12.20;6.30;;;;;;;;;;5017166;28;20042;-47
2022/02/05 11:39:00;;;;;;;9.95;7.35;;;;;;;;;;5015801;28;20041;-45
2022/02/05 11:41:28;;;;;;;11.27;6.30;;;;;;;;;;5014837;28;20526;-44
2022/02/05 11:44:12;;;;;;;7.47;6.43;;;;;;;;;;5014936;28;20029;-49
2022/02/05 11:46:37;;;;;;;11.48;6.05;;;;;;;;;;5016188;28;20593;-42
2022/02/05 11:49:05;;;;;;;21.20;7.30;;;;;;;;;;5014686;28;20058;-48
2022/02/05 11:51:30;;;;;;;10.98;7.15;;;;;;;;;;5017051;28;20035;-47
2022/02/05 11:53:56;;;;;;;13.50;7.78;;;;;;;;;;5016073;28;20066;-42
2022/02/05 11:56:21;;;;;;;24.38;19.90;;;;;;;;;;5018209;28;20037;-44
2022/02/05 11:58:57;;;;;;;20.55;16.92;;;;;;;;;;5014526;28;20056;-44
2022/02/05 12:01:32;;;;;;;19.42;16.30;;;;;;;;;;5014914;28;20018;-43
2022/02/05 12:04:10;;;;;;;14.18;6.93;;;;;;;;;;5018673;28;20095;-47
2022/02/05 12:06:45;;;;;;;11.35;8.00;;;;;;;;;;5017397;28;20078;-45
2022/02/05 12:09:32;;;;;;;11.23;8.38;;;;;;;;;;5015130;28;20558;-43
2022/02/05 12:12:17;;;;;;;13.27;4.45;;;;;;;;;;5016845;28;20037;-44
2022/02/05 12:15:01;;;;;;;7.65;4.70;;;;;;;;;;5015849;28;20490;-45
2022/02/05 12:17:38;;;;;;;23.15;5.78;;;;;;;;;;5016327;28;20470;-43
2022/02/05 12:20:08;;;;;;;11.30;5.85;;;;;;;;;;5013364;28;20025;-44
2022/02/05 12:22:52;;;;;;;7.00;3.97;;;;;;;;;;5015574;28;20048;-45
2022/02/05 12:25:20;;;;;;;6.20;4.47;;;;;;;;;;5015985;28;20053;-47
2022/02/05 12:27:46;;;;;;;7.43;5.05;;;;;;;;;;5018919;28;20067;-46
2022/02/05 12:30:27;;;;;;;5.28;4.22;;;;;;;;;;5013973;28;20556;-48
2022/02/05 12:32:55;;;;;;;5.53;4.18;;;;;;;;;;5011530;28;20088;-47
2022/02/05 12:35:21;;;;;;;6.38;5.78;;;;;;;;;;5015959;28;20053;-46
2022/02/05 12:37:46;;;;;;;9.38;5.70;;;;;;;;;;5015945;28;20639;-45
2022/02/05 12:40:11;;;;;;;14.02;10.07;;;;;;;;;;5017139;28;20512;-48
2022/02/05 12:42:39;;;;;;;9.40;6.13;;;;;;;;;;5014615;28;20029;-51
2022/02/05 12:45:05;;;;;;;7.18;5.85;;;;;;;;;;5017016;28;20470;-47
2022/02/05 12:47:37;;;;;;;8.13;4.93;;;;;;;;;;5016468;28;20064;-47
2022/02/05 12:50:07;;;;;;;;;;;;;;;;;;5020830;28;20029;-47
2022/02/05 12:52:32;;;;;;;7.57;5.70;;;;;;;;;;5015778;28;19932;-47
2022/02/05 12:55:00;;;;;;;12.32;8.20;;;;;;;;;;5014006;28;20029;-49
2022/02/05 12:57:26;;;;;;;23.42;15.15;;;;;;;;;;5015371;28;20029;-45
2022/02/05 12:59:52;;;;;;;21.90;14.75;;;;;;;;;;5015667;28;20033;-49
2022/02/05 13:02:18;;;;;;;15.63;11.98;;;;;;;;;;5015324;28;20022;-47
2022/02/05 13:04:51;;;;;;;14.82;13.32;;;;;;;;;;5015138;28;20021;-48
2022/02/05 13:07:23;;;;;;;14.52;11.57;;;;;;;;;;5014868;28;20037;-46
2022/02/05 13:09:53;;;;;;;25.40;12.20;;;;;;;;;;5015072;28;20036;-43
2022/02/05 13:12:21;;;;;;;12.40;9.65;;;;;;;;;;5017198;28;20553;-46
2022/02/05 13:14:54;;;;;;;12.85;11.23;;;;;;;;;;5016348;28;20517;-48
2022/02/05 13:36:01;;;;;;;20.63;15.43;;;;;;;;;;5013482;28;20037;-47
2022/02/05 13:38:30;;;;;;;17.20;15.38;;;;;;;;;;5014802;28;20022;-47
2022/02/05 13:41:00;;;;;;;31.65;22.85;;;;;;;;;;5014505;28;20025;-46
2022/02/05 13:43:40;;;;;;;19.75;17.85;;;;;;;;;;5014947;28;20022;-48
2022/02/05 13:46:09;;;;;;;23.30;19.17;;;;;;;;;;5014025;28;20026;-46
2022/02/05 13:48:36;;;;;;;19.05;17.10;;;;;;;;;;5013568;28;20753;-43
2022/02/05 13:51:04;;;;;;;15.30;13.80;;;;;;;;;;5013768;28;20042;-48
2022/02/05 13:53:30;;;;;;;20.58;16.92;;;;;;;;;;5016289;28;20025;-47
2022/02/05 13:55:55;;;;;;;12.98;11.52;;;;;;;;;;5015157;28;20021;-46
2022/02/05 13:58:21;;;;;;;9.25;8.35;;;;;;;;;;5017073;28;20078;-46
2022/02/05 14:01:02;;;;;;;10.85;5.28;;;;;;;;;;5014230;28;20525;-50
2022/02/05 14:03:27;;;;;;;13.15;9.45;;;;;;;;;;5016485;28;20047;-51
2022/02/05 14:06:02;;;;;;;21.00;12.60;;;;;;;;;;5017508;28;20116;-47
2022/02/05 14:08:27;;;;;;;14.77;10.10;;;;;;;;;;5013317;28;20025;-49
2022/02/05 14:10:53;;;;;;;13.05;10.35;;;;;;;;;;5016201;28;20514;-44
2022/02/05 14:13:19;;;;;;;13.57;11.27;;;;;;;;;;5012438;28;20033;-46
2022/02/05 14:15:50;;;;;;;19.17;16.58;;;;;;;;;;5016416;28;20021;-46
2022/02/05 14:18:16;;;;;;;20.17;18.13;;;;;;;;;;5016165;28;20112;-46
2022/02/05 14:20:51;;;;;;;18.85;16.55;;;;;;;;;;5020232;28;20125;-48
2022/02/05 14:23:20;;;;;;;12.02;10.32;;;;;;;;;;5016821;28;20096;-45
2022/02/05 14:25:46;;;;;;;15.23;13.63;;;;;;;;;;5016301;28;20494;-44
2022/02/05 14:28:17;;;;;;;12.25;10.80;;;;;;;;;;5017347;28;20033;-47
2022/02/05 14:31:02;;;;;;;14.07;9.23;;;;;;;;;;5019201;28;20030;-48
2022/02/05 14:33:37;;;;;;;7.70;6.68;;;;;;;;;;5018637;28;20021;-46
2022/02/05 14:41:21;;;;;;;7.45;4.72;;;;;;;;;;5021045;28;20041;-48
2022/02/05 14:43:46;;;;;;;6.10;4.72;;;;;;;;;;5014042;28;20018;-46
2022/02/05 14:46:11;;;;;;;8.95;5.93;;;;;;;;;;5014643;28;20048;-47
2022/02/05 14:48:36;;;;;;;6.72;5.90;;;;;;;;;;5020068;28;20077;-43
2022/02/05 14:51:03;;;;;;;6.72;6.03;;;;;;;;;;5018658;28;20499;-48
2022/02/05 14:53:30;;;;;;;8.80;5.43;;;;;;;;;;5017353;28;20029;-50
2022/02/05 14:55:55;;;;;;;15.60;6.35;;;;;;;;;;5019023;28;20095;-44
2022/02/05 14:58:21;;;;;;;17.40;8.90;;;;;;;;;;5016746;28;20462;-47
2022/02/05 15:00:46;;;;;;;9.30;7.53;;;;;;;;;;5018524;28;20026;-45
2022/02/05 15:03:16;;;;;;;10.90;6.30;;;;;;;;;;5017271;28;20026;-46
2022/02/05 15:05:42;;;;;;;9.20;5.68;;;;;;;;;;5017890;28;20490;-45
2022/02/05 15:08:07;;;;;;;7.43;5.72;;;;;;;;;;5017479;28;20030;-49
2022/02/05 15:10:33;;;;;;;6.57;4.03;;;;;;;;;;5019652;28;20699;-44
2022/02/05 15:12:58;;;;;;;6.22;4.68;;;;;;;;;;5019500;28;20109;-44
2022/02/05 15:15:25;;;;;;;12.98;5.40;;;;;;;;;;5017157;28;20069;-47
2022/02/05 15:17:51;;;;;;;5.05;4.55;;;;;;;;;;5016888;28;20014;-48
2022/02/05 15:20:19;;;;;;;5.70;4.80;;;;;;;;;;5017499;28;20025;-47
2022/02/05 15:22:45;;;;;;;7.88;4.07;;;;;;;;;;5017332;28;20083;-43
2022/02/05 15:25:12;;;;;;;9.82;5.32;;;;;;;;;;5019140;28;20701;-44
2022/02/05 15:27:37;;;;;;;7.15;4.97;;;;;;;;;;5020469;28;20021;-49
2022/02/05 15:30:03;;;;;;;5.90;4.35;;;;;;;;;;5016298;28;20509;-47
2022/02/05 15:32:29;;;;;;;7.75;4.80;;;;;;;;;;5019600;28;20109;-49
2022/02/05 15:34:54;;;;;;;8.15;4.63;;;;;;;;;;5016571;28;20116;-50
2022/02/05 15:37:23;;;;;;;8.63;6.00;;;;;;;;;;5016990;28;20089;-46
2022/02/05 15:40:20;;;;;;;10.73;9.07;;;;;;;;;;5018647;28;20156;-49
2022/02/05 15:45:18;;;;;;;10.60;7.20;;;;;;;;;;5019510;28;20552;-50
2022/02/05 15:47:43;;;;;;;9.38;5.60;;;;;;;;;;5014396;28;20695;-47
2022/02/05 15:50:11;;;;;;;8.70;7.30;;;;;;;;;;5017298;28;20474;-45
2022/02/05 15:52:36;;;;;;;14.93;9.38;;;;;;;;;;5019424;28;20144;-46
2022/02/05 15:55:02;;;;;;;26.35;23.05;;;;;;;;;;5016728;28;20113;-45
2022/02/05 16:00:20;;;;;;;33.60;29.70;;;;;;;;;;5017863;28;20032;-48
2022/02/05 16:02:45;;;;;;;26.35;13.38;;;;;;;;;;5018116;28;20044;-50
2022/02/05 16:05:10;;;;;;;23.52;21.10;;;;;;;;;;5018259;28;20025;-49
2022/02/05 16:07:36;;;;;;;19.73;14.18;;;;;;;;;;5018006;28;20487;-46
2022/02/05 16:10:01;;;;;;;18.15;15.43;;;;;;;;;;5016393;28;20108;-48
2022/02/05 16:12:26;;;;;;;24.23;15.80;;;;;;;;;;5018581;28;20495;-49
2022/02/05 16:14:52;;;;;;;71.70;52.72;;;;;;;;;;5014232;28;20108;-51
2022/02/05 16:17:17;;;;;;;71.15;54.47;;;;;;;;;;5014041;28;20057;-47
2022/02/05 16:19:42;;;;;;;106.95;78.50;;;;;;;;;;5014829;28;20068;-47
2022/02/05 16:22:08;;;;;;;84.00;56.45;;;;;;;;;;5016127;28;20180;-45
2022/02/05 16:24:33;;;;;;;128.57;112.70;;;;;;;;;;5015512;28;20100;-46
2022/02/05 16:26:58;;;;;;;55.80;46.15;;;;;;;;;;5013686;28;20030;-44
2022/02/05 16:29:27;;;;;;;37.00;32.63;;;;;;;;;;5016096;28;20069;-49
2022/02/05 16:31:56;;;;;;;52.05;46.90;;;;;;;;;;5016309;28;20482;-47
2022/02/05 16:34:23;;;;;;;76.70;69.53;;;;;;;;;;5017167;28;20033;-44
2022/02/05 16:36:50;;;;;;;53.45;48.67;;;;;;;;;;5016117;28;20041;-45
2022/02/05 16:39:18;;;;;;;52.78;47.55;;;;;;;;;;5014602;28;20131;-50
2022/02/05 16:41:43;;;;;;;50.55;43.58;;;;;;;;;;5014403;28;20025;-47
2022/02/05 16:44:08;;;;;;;42.78;38.63;;;;;;;;;;5015007;28;20022;-45
2022/02/05 16:46:39;;;;;;;32.85;29.60;;;;;;;;;;5013516;28;20455;-46
2022/02/05 16:49:04;;;;;;;32.05;28.88;;;;;;;;;;5015174;28;20049;-46
2022/02/05 16:51:31;;;;;;;34.33;29.70;;;;;;;;;;5017668;28;20477;-46
2022/02/05 16:53:57;;;;;;;26.27;23.52;;;;;;;;;;5015510;28;20040;-47
2022/02/05 16:56:22;;;;;;;24.25;21.40;;;;;;;;;;5016803;28;20589;-50
2022/02/05 16:58:48;;;;;;;19.48;17.75;;;;;;;;;;5014052;28;20025;-48
2022/02/05 17:01:13;;;;;;;17.63;15.80;;;;;;;;;;5014575;28;20018;-49
2022/02/05 17:03:39;;;;;;;8.07;6.55;;;;;;;;;;5013166;28;20102;-49
2022/02/05 17:06:04;;;;;;;13.00;9.68;;;;;;;;;;5016824;28;20532;-49
2022/02/05 17:08:34;;;;;;;12.95;11.40;;;;;;;;;;5015503;28;20537;-48
2022/02/05 17:10:59;;;;;;;20.60;18.45;;;;;;;;;;5013720;28;20699;-49
2022/02/05 17:13:28;;;;;;;24.83;20.98;;;;;;;;;;5012061;28;20045;-47
2022/02/05 17:15:54;;;;;;;33.35;30.13;;;;;;;;;;5015959;28;20211;-47
2022/02/05 17:18:24;;;;;;;18.75;16.75;;;;;;;;;;5019147;28;20598;-51
2022/02/05 17:20:54;;;;;;;18.25;16.42;;;;;;;;;;5012436;28;20028;-48
2022/02/05 17:23:26;;;;;;;18.13;16.27;;;;;;;;;;5018487;28;20033;-45
2022/02/05 17:25:52;;;;;;;12.38;9.65;;;;;;;;;;5014828;28;20045;-49
2022/02/05 17:28:17;;;;;;;10.75;9.57;;;;;;;;;;5015956;28;20112;-45
2022/02/05 17:30:43;;;;;;;28.85;19.25;;;;;;;;;;5014820;28;20025;-46
2022/02/05 17:33:10;;;;;;;27.20;24.73;;;;;;;;;;5015520;28;20025;-46
2022/02/05 17:35:40;;;;;;;38.25;34.67;;;;;;;;;;5015166;28;20033;-47
2022/02/05 17:38:06;;;;;;;35.30;31.88;;;;;;;;;;5016856;28;20549;-50
2022/02/05 17:40:32;;;;;;;29.65;25.15;;;;;;;;;;5013362;28;20018;-47